createdAt,value
2023-03-17T00:01:51.495Z,32.36
2023-03-17T00:04:24.208Z,32.49
2023-03-17T00:06:53.187Z,32.39
2023-03-17T00:09:22.614Z,32.39
2023-03-17T00:11:50.895Z,32.44
2023-03-17T00:14:19.041Z,32.47
2023-03-17T00:16:50.874Z,32.51
2023-03-17T00:19:21.774Z,32.57
2023-03-17T00:21:51.901Z,32.37
2023-03-17T00:24:20.153Z,32.44
2023-03-17T00:26:48.363Z,32.51
2023-03-17T00:29:16.561Z,32.44
2023-03-17T00:31:46.243Z,32.48
2023-03-17T00:34:18.740Z,32.59
2023-03-17T00:36:48.493Z,32.62
2023-03-17T00:39:18.683Z,32.50
2023-03-17T00:41:50.489Z,32.59
2023-03-17T00:44:18.769Z,32.47
2023-03-17T00:46:47.332Z,32.53
2023-03-17T00:49:21.380Z,32.60
2023-03-17T00:51:50.301Z,32.52
2023-03-17T00:54:21.209Z,32.66
2023-03-17T00:56:51.057Z,32.51
2023-03-17T00:59:29.058Z,32.61
2023-03-17T01:01:58.003Z,32.77
2023-03-17T01:04:26.497Z,32.76
2023-03-17T01:06:55.348Z,32.60
2023-03-17T01:09:28.275Z,32.65
2023-03-17T01:11:56.850Z,32.84
2023-03-17T01:14:25.991Z,32.64
2023-03-17T01:16:55.281Z,32.72
2023-03-17T01:19:23.900Z,32.82
2023-03-17T01:21:52.462Z,32.79
2023-03-17T01:24:21.157Z,32.60
2023-03-17T01:26:50.990Z,32.66
2023-03-17T01:29:19.132Z,32.72
2023-03-17T01:31:47.833Z,32.78
2023-03-17T01:34:16.116Z,32.74
2023-03-17T01:36:44.285Z,32.74
2023-03-17T01:39:13.132Z,32.77
2023-03-17T01:41:41.327Z,32.84
2023-03-17T01:44:17.029Z,32.79
2023-03-17T01:46:45.584Z,32.83
2023-03-17T01:49:26.724Z,32.93
2023-03-17T01:52:06.187Z,32.78
2023-03-17T01:54:39.937Z,32.85
2023-03-17T01:57:13.729Z,32.92
2023-03-17T01:59:48.880Z,32.85
2023-03-17T02:02:21.518Z,32.99
2023-03-17T02:04:50.528Z,32.95
2023-03-17T02:07:19.682Z,32.98
2023-03-17T02:09:48.267Z,32.97
2023-03-17T02:12:16.537Z,32.81
2023-03-17T02:14:46.844Z,33.09
2023-03-17T02:17:15.071Z,32.86
2023-03-17T02:19:43.267Z,32.96
2023-03-17T02:22:12.910Z,32.94
2023-03-17T02:24:43.406Z,32.93
2023-03-17T02:27:15.389Z,32.90
2023-03-17T02:29:46.451Z,32.94
2023-03-17T02:32:15.706Z,32.93
2023-03-17T02:34:43.785Z,33.13
2023-03-17T02:37:13.339Z,33.13
2023-03-17T02:39:41.662Z,32.96
2023-03-17T02:42:10.770Z,32.99
2023-03-17T02:44:38.860Z,32.99
2023-03-17T02:47:07.708Z,33.08
2023-03-17T02:49:37.288Z,33.17
2023-03-17T02:52:06.128Z,33.05
2023-03-17T02:54:36.132Z,33.07
2023-03-17T02:57:04.380Z,33.08
2023-03-17T02:59:32.512Z,33.00
2023-03-17T03:02:01.127Z,33.00
2023-03-17T03:04:29.742Z,33.03
2023-03-17T03:06:58.008Z,33.25
2023-03-17T03:09:26.149Z,33.29
2023-03-17T03:11:55.863Z,32.96
2023-03-17T03:14:24.024Z,33.16
2023-03-17T03:16:52.392Z,33.09
2023-03-17T03:19:20.540Z,33.09
2023-03-17T03:21:48.631Z,33.11
2023-03-17T03:24:16.725Z,33.23
2023-03-17T03:26:45.123Z,33.15
2023-03-17T03:29:14.724Z,33.22
2023-03-17T03:31:43.181Z,33.21
2023-03-17T03:34:11.273Z,33.22
2023-03-17T03:36:39.372Z,33.33
2023-03-17T03:39:08.125Z,33.12
2023-03-17T03:41:36.386Z,33.26
2023-03-17T03:44:04.565Z,33.26
2023-03-17T03:46:34.214Z,33.33
2023-03-17T03:49:02.421Z,33.24
2023-03-17T03:51:30.559Z,33.21
2023-03-17T03:53:58.766Z,33.12
2023-03-17T03:56:27.178Z,33.26
2023-03-17T03:58:56.784Z,33.20
2023-03-17T04:01:25.205Z,33.45
2023-03-17T04:03:54.686Z,33.34
2023-03-17T04:06:23.158Z,33.24
2023-03-17T04:08:51.293Z,33.38
2023-03-17T04:11:19.483Z,33.44
2023-03-17T04:13:47.673Z,33.31
2023-03-17T04:16:16.317Z,33.33
2023-03-17T04:18:44.762Z,33.39
2023-03-17T04:21:18.521Z,33.18
2023-03-17T04:23:46.666Z,33.33
2023-03-17T04:26:14.802Z,33.38
2023-03-17T04:28:42.868Z,33.30
2023-03-17T04:31:12.891Z,33.36
2023-03-17T04:33:41.129Z,33.39
2023-03-17T04:36:12.856Z,33.41
2023-03-17T04:38:42.368Z,33.41
2023-03-17T04:41:10.457Z,33.37
2023-03-17T04:43:38.596Z,33.48
2023-03-17T04:46:06.995Z,33.35
2023-03-17T04:48:35.568Z,33.37
2023-03-17T04:51:03.717Z,33.55
2023-03-17T04:53:31.979Z,33.52
2023-03-17T04:56:01.508Z,33.52
2023-03-17T04:58:31.060Z,33.57
2023-03-17T05:00:59.584Z,33.38
2023-03-17T05:03:28.634Z,33.53
2023-03-17T05:05:57.614Z,33.55
2023-03-17T05:08:26.298Z,33.54
2023-03-17T05:10:54.932Z,33.40
2023-03-17T05:13:25.340Z,33.51
2023-03-17T05:15:55.608Z,33.48
2023-03-17T05:18:26.019Z,33.51
2023-03-17T05:20:54.399Z,33.60
2023-03-17T05:23:23.192Z,33.49
2023-03-17T05:25:51.412Z,33.60
2023-03-17T05:28:20.967Z,33.68
2023-03-17T05:30:50.849Z,33.55
2023-03-17T05:33:19.075Z,33.44
2023-03-17T05:35:47.899Z,33.55
2023-03-17T05:38:17.060Z,33.39
2023-03-17T05:40:45.776Z,33.65
2023-03-17T05:43:14.081Z,33.61
2023-03-17T05:45:42.373Z,33.70
2023-03-17T05:48:13.268Z,33.65
2023-03-17T05:50:42.742Z,33.58
2023-03-17T05:53:11.078Z,33.68
2023-03-17T05:55:39.213Z,33.60
2023-03-17T05:58:07.889Z,33.77
2023-03-17T06:00:36.533Z,33.77
2023-03-17T06:03:05.396Z,33.58
2023-03-17T06:05:35.738Z,33.68
2023-03-17T06:08:05.227Z,33.69
2023-03-17T06:10:33.797Z,33.66
2023-03-17T06:13:03.965Z,33.60
2023-03-17T06:15:34.253Z,33.71
2023-03-17T06:18:02.631Z,33.79
2023-03-17T06:20:31.336Z,33.71
2023-03-17T06:23:04.914Z,33.79
2023-03-17T06:25:34.475Z,33.65
2023-03-17T06:28:04.090Z,33.84
2023-03-17T06:30:33.186Z,33.88
2023-03-17T06:33:01.803Z,33.74
2023-03-17T06:35:30.569Z,33.87
2023-03-17T06:38:01.037Z,33.83
2023-03-17T06:40:29.724Z,33.81
2023-03-17T06:42:57.866Z,33.79
2023-03-17T06:45:26.095Z,33.82
2023-03-17T06:47:54.493Z,33.79
2023-03-17T06:50:22.815Z,33.90
2023-03-17T06:52:51.048Z,33.83
2023-03-17T06:55:21.383Z,33.82
2023-03-17T06:57:51.177Z,33.83
2023-03-17T07:00:21.200Z,33.89
2023-03-17T07:02:50.332Z,33.89
2023-03-17T07:05:18.670Z,33.85
2023-03-17T07:07:47.185Z,33.97
2023-03-17T07:10:17.395Z,33.86
2023-03-17T07:12:47.130Z,33.95
2023-03-17T07:15:17.322Z,33.97
2023-03-17T07:17:46.955Z,34.03
2023-03-17T07:20:15.205Z,34.05
2023-03-17T07:22:43.554Z,33.93
2023-03-17T07:25:11.918Z,34.05
2023-03-17T07:27:40.344Z,34.05
2023-03-17T07:30:11.639Z,33.98
2023-03-17T07:32:40.395Z,34.25
2023-03-17T07:35:08.967Z,34.19
2023-03-17T07:37:37.182Z,34.06
2023-03-17T07:40:06.507Z,34.09
2023-03-17T07:42:34.709Z,34.29
2023-03-17T07:45:04.197Z,34.11
2023-03-17T07:47:34.288Z,34.20
2023-03-17T07:50:02.585Z,34.26
2023-03-17T07:52:30.876Z,34.14
2023-03-17T07:54:59.671Z,34.23
2023-03-17T07:57:28.812Z,34.14
2023-03-17T07:59:57.053Z,34.16
2023-03-17T08:02:25.293Z,34.23
2023-03-17T08:04:55.256Z,34.19
2023-03-17T08:07:23.387Z,34.33
2023-03-17T08:09:52.781Z,34.28
2023-03-17T08:12:21.330Z,34.34
2023-03-17T08:14:49.418Z,34.32
2023-03-17T08:17:18.146Z,34.29
2023-03-17T08:19:46.247Z,34.20
2023-03-17T08:22:15.724Z,34.30
2023-03-17T08:24:44.440Z,34.20
2023-03-17T08:27:12.846Z,34.30
2023-03-17T08:29:40.973Z,34.27
2023-03-17T08:32:10.230Z,34.39
2023-03-17T08:34:38.809Z,34.44
2023-03-17T08:37:11.322Z,34.40
2023-03-17T08:39:41.483Z,34.30
2023-03-17T08:42:09.540Z,34.41
2023-03-17T08:44:37.884Z,34.18
2023-03-17T08:47:06.217Z,34.44
2023-03-17T08:49:36.683Z,34.51
2023-03-17T08:52:05.349Z,34.31
2023-03-17T08:54:36.043Z,34.34
2023-03-17T08:57:05.695Z,34.52
2023-03-17T08:59:34.060Z,34.48
2023-03-17T09:02:02.256Z,34.49
2023-03-17T09:04:30.362Z,34.61
2023-03-17T09:07:03.615Z,34.47
2023-03-17T09:09:32.404Z,34.48
2023-03-17T09:12:00.700Z,34.50
2023-03-17T09:14:35.297Z,34.48
2023-03-17T09:17:11.242Z,34.42
2023-03-17T09:19:40.517Z,34.46
2023-03-17T09:22:08.860Z,34.56
2023-03-17T09:24:37.016Z,34.37
2023-03-17T09:27:05.666Z,34.40
2023-03-17T09:29:35.199Z,34.57
2023-03-17T09:32:03.551Z,34.48
2023-03-17T09:34:31.641Z,34.50
2023-03-17T09:37:00.231Z,34.56
2023-03-17T09:39:28.455Z,34.56
2023-03-17T09:42:08.236Z,34.58
2023-03-17T09:44:55.714Z,34.66
2023-03-17T09:47:46.220Z,34.75
2023-03-17T09:50:18.970Z,34.63
2023-03-17T09:52:48.048Z,34.67
2023-03-17T09:55:26.427Z,34.71
2023-03-17T09:57:57.157Z,34.53
2023-03-17T10:00:29.858Z,34.63
2023-03-17T10:02:58.384Z,34.60
2023-03-17T10:05:29.001Z,34.58
2023-03-17T10:08:13.028Z,34.81
2023-03-17T10:10:50.484Z,34.57
2023-03-17T10:13:30.141Z,34.80
2023-03-17T10:16:05.057Z,34.68
2023-03-17T10:18:43.339Z,34.57
2023-03-17T10:21:12.861Z,34.78
2023-03-17T10:23:41.541Z,34.66
2023-03-17T10:26:18.666Z,34.75
2023-03-17T10:28:46.741Z,34.68
2023-03-17T10:31:20.224Z,34.70
2023-03-17T10:33:52.345Z,34.79
2023-03-17T10:36:35.790Z,34.84
2023-03-17T10:39:07.151Z,34.71
2023-03-17T10:41:38.159Z,34.84
2023-03-17T10:44:10.723Z,34.74
2023-03-17T10:46:41.401Z,34.75
2023-03-17T10:49:18.013Z,34.79
2023-03-17T10:51:48.074Z,34.81
2023-03-17T10:54:19.559Z,34.66
2023-03-17T10:56:50.727Z,34.77
2023-03-17T10:59:22.691Z,34.96
2023-03-17T11:01:55.523Z,34.74
2023-03-17T11:04:33.151Z,34.94
2023-03-17T11:07:07.921Z,34.71
2023-03-17T11:09:37.187Z,34.75
2023-03-17T11:12:08.974Z,34.78
2023-03-17T11:14:37.545Z,34.72
2023-03-17T11:17:19.540Z,35.00
2023-03-17T11:19:55.039Z,34.82
2023-03-17T11:22:32.489Z,34.95
2023-03-17T11:25:11.550Z,34.82
2023-03-17T11:27:47.144Z,34.80
2023-03-17T11:30:26.593Z,34.81
2023-03-17T11:32:59.269Z,34.77
2023-03-17T11:35:47.969Z,34.85
2023-03-17T11:38:26.019Z,35.00
2023-03-17T11:41:23.324Z,35.07
2023-03-17T11:44:06.899Z,34.96
2023-03-17T11:46:38.833Z,34.78
2023-03-17T11:49:13.118Z,34.90
2023-03-17T11:51:52.619Z,34.82
2023-03-17T11:54:25.273Z,34.90
2023-03-17T11:56:57.337Z,34.81
2023-03-17T11:59:31.612Z,34.94
2023-03-17T12:02:07.380Z,34.92
2023-03-17T12:04:43.970Z,34.92
2023-03-17T12:07:20.747Z,34.95
2023-03-17T12:09:56.995Z,34.92
2023-03-17T12:12:31.557Z,34.95
2023-03-17T12:15:02.248Z,35.03
2023-03-17T12:17:35.637Z,35.07
2023-03-17T12:20:16.558Z,34.99
2023-03-17T12:22:48.800Z,35.02
2023-03-17T12:25:25.744Z,35.08
2023-03-17T12:28:01.611Z,34.96
2023-03-17T12:30:36.593Z,34.84
2023-03-17T12:33:17.134Z,35.13
2023-03-17T12:35:46.695Z,35.03
2023-03-17T12:38:21.012Z,34.98
2023-03-17T12:41:20.809Z,35.31
2023-03-17T12:44:00.900Z,35.04
2023-03-17T12:46:45.182Z,35.08
2023-03-17T12:49:31.058Z,35.22
2023-03-17T12:52:13.464Z,35.04
2023-03-17T12:54:47.938Z,35.13
2023-03-17T12:57:20.207Z,35.17
2023-03-17T12:59:51.419Z,35.12
2023-03-17T13:02:32.220Z,35.02
2023-03-17T13:05:02.213Z,34.95
2023-03-17T13:07:38.444Z,35.15
2023-03-17T13:10:37.344Z,35.38
2023-03-17T13:13:10.577Z,35.16
2023-03-17T13:16:00.691Z,35.36
2023-03-17T13:18:47.961Z,35.30
2023-03-17T13:21:18.795Z,35.00
2023-03-17T13:23:54.950Z,35.03
2023-03-17T13:26:44.910Z,34.93
2023-03-17T13:29:25.783Z,35.16
2023-03-17T13:31:54.232Z,34.91
2023-03-17T13:34:22.507Z,34.99
2023-03-17T13:37:02.406Z,35.11
2023-03-17T13:40:15.710Z,35.28
2023-03-17T13:43:05.442Z,35.26
2023-03-17T13:45:39.463Z,35.10
2023-03-17T13:48:28.545Z,35.28
2023-03-17T13:51:02.696Z,34.98
2023-03-17T13:53:37.477Z,35.05
2023-03-17T13:56:15.348Z,35.07
2023-03-17T13:58:58.984Z,35.16
2023-03-17T14:01:28.380Z,35.11
2023-03-17T14:03:57.634Z,35.03
2023-03-17T14:06:31.394Z,35.10
2023-03-17T14:09:04.826Z,35.11
2023-03-17T14:11:38.876Z,35.27
2023-03-17T14:14:32.185Z,35.20
2023-03-17T14:17:08.262Z,35.21
2023-03-17T14:19:41.556Z,35.19
2023-03-17T14:22:30.531Z,35.51
2023-03-17T14:25:03.866Z,35.10
2023-03-17T14:27:35.455Z,35.09
2023-03-17T14:30:09.738Z,35.28
2023-03-17T14:32:38.059Z,35.13
2023-03-17T14:35:07.157Z,35.23
2023-03-17T14:37:38.764Z,35.27
2023-03-17T14:40:21.907Z,35.54
2023-03-17T14:42:51.572Z,35.25
2023-03-17T14:45:23.736Z,35.39
2023-03-17T14:47:52.955Z,35.15
2023-03-17T14:50:27.505Z,35.26
2023-03-17T14:52:56.848Z,35.32
2023-03-17T14:55:34.750Z,35.43
2023-03-17T14:58:10.229Z,35.37
2023-03-17T15:00:45.291Z,35.21
2023-03-17T15:03:22.015Z,35.32
2023-03-17T15:05:51.272Z,35.40
2023-03-17T15:08:46.250Z,35.39
2023-03-17T15:11:27.037Z,35.55
2023-03-17T15:14:04.946Z,35.32
2023-03-17T15:16:36.262Z,35.37
2023-03-17T15:19:08.041Z,35.29
2023-03-17T15:21:40.944Z,35.26
2023-03-17T15:24:25.011Z,35.51
2023-03-17T15:27:00.984Z,35.52
2023-03-17T15:29:31.116Z,35.42
2023-03-17T15:32:07.901Z,35.43
2023-03-17T15:34:35.990Z,35.39
2023-03-17T15:37:04.042Z,35.44
2023-03-17T15:39:32.093Z,35.47
2023-03-17T15:42:00.120Z,35.40
2023-03-17T15:44:28.192Z,35.55
2023-03-17T15:46:57.666Z,35.52
2023-03-17T15:49:27.090Z,35.45
2023-03-17T15:51:55.193Z,35.48
2023-03-17T15:54:23.271Z,35.37
2023-03-17T15:56:51.610Z,35.36
2023-03-17T15:59:19.639Z,35.46
2023-03-17T16:01:48.085Z,35.47
2023-03-17T16:04:18.094Z,35.56
2023-03-17T16:06:48.094Z,35.56
2023-03-17T16:09:18.194Z,35.46
2023-03-17T16:11:46.329Z,35.62
2023-03-17T16:14:14.400Z,35.56
2023-03-17T16:16:45.919Z,35.57
2023-03-17T16:19:21.265Z,35.60
2023-03-17T16:21:49.980Z,35.60
2023-03-17T16:24:20.425Z,35.49
2023-03-17T16:26:48.631Z,35.54
2023-03-17T16:29:17.444Z,35.60
2023-03-17T16:31:48.941Z,35.61
2023-03-17T16:34:20.852Z,35.54
2023-03-17T16:36:50.503Z,35.65
2023-03-17T16:39:20.368Z,35.64
2023-03-17T16:41:49.028Z,35.62
2023-03-17T16:44:18.474Z,35.64
2023-03-17T16:46:46.691Z,35.87
2023-03-17T16:49:16.655Z,35.54
2023-03-17T16:51:47.785Z,35.71
2023-03-17T16:54:16.898Z,35.65
2023-03-17T16:56:45.501Z,35.69
2023-03-17T16:59:19.929Z,35.65
2023-03-17T17:01:48.264Z,35.72
2023-03-17T17:04:16.842Z,35.78
2023-03-17T17:06:46.456Z,35.69
2023-03-17T17:09:14.590Z,35.71
2023-03-17T17:11:42.768Z,35.65
2023-03-17T17:14:11.029Z,35.63
2023-03-17T17:16:40.978Z,35.70
2023-03-17T17:19:15.785Z,35.82
2023-03-17T17:21:44.380Z,35.81
2023-03-17T17:24:14.970Z,35.76
2023-03-17T17:26:43.161Z,35.66
2023-03-17T17:29:12.256Z,35.69
2023-03-17T17:31:40.996Z,35.78
2023-03-17T17:34:09.244Z,35.80
2023-03-17T17:36:37.500Z,35.73
2023-03-17T17:39:06.851Z,35.73
2023-03-17T17:41:36.472Z,35.81
2023-03-17T17:44:05.671Z,35.89
2023-03-17T17:46:34.005Z,35.87
2023-03-17T17:49:02.214Z,35.80
2023-03-17T17:51:32.751Z,35.86
2023-03-17T17:54:00.929Z,35.94
2023-03-17T17:56:30.913Z,35.75
2023-03-17T17:59:00.588Z,35.82
2023-03-17T18:01:28.823Z,35.78
2023-03-17T18:03:56.916Z,35.80
2023-03-17T18:06:25.027Z,35.82
2023-03-17T18:08:53.102Z,35.96
2023-03-17T18:11:21.179Z,35.88
2023-03-17T18:13:49.331Z,35.72
2023-03-17T18:16:20.328Z,36.06
2023-03-17T18:18:48.427Z,35.90
2023-03-17T18:21:16.831Z,35.88
2023-03-17T18:23:47.286Z,35.88
2023-03-17T18:26:16.880Z,35.89
2023-03-17T18:28:46.091Z,35.89
2023-03-17T18:31:17.909Z,35.93
2023-03-17T18:33:50.384Z,36.04
2023-03-17T18:36:19.034Z,35.94
2023-03-17T18:38:47.583Z,35.85
2023-03-17T18:41:16.257Z,36.02
2023-03-17T18:43:45.005Z,35.97
2023-03-17T18:46:13.988Z,36.09
2023-03-17T18:48:42.144Z,35.86
2023-03-17T18:51:11.661Z,36.05
2023-03-17T18:53:39.723Z,35.98
2023-03-17T18:56:08.445Z,35.98
2023-03-17T18:58:37.338Z,36.01
2023-03-17T19:01:06.734Z,35.98
2023-03-17T19:03:35.056Z,35.93
2023-03-17T19:06:12.162Z,36.07
2023-03-17T19:08:40.312Z,36.01
2023-03-17T19:11:09.412Z,35.90
2023-03-17T19:13:38.278Z,36.12
2023-03-17T19:16:08.303Z,36.05
2023-03-17T19:18:37.603Z,35.93
2023-03-17T19:21:06.181Z,36.03
2023-03-17T19:23:36.079Z,36.04
2023-03-17T19:26:04.836Z,36.10
2023-03-17T19:28:33.356Z,36.05
2023-03-17T19:31:01.802Z,36.15
2023-03-17T19:33:30.138Z,36.11
2023-03-17T19:36:00.036Z,35.96
2023-03-17T19:38:28.562Z,36.04
2023-03-17T19:40:58.044Z,36.17
2023-03-17T19:43:40.009Z,35.96
2023-03-17T19:46:09.552Z,36.01
2023-03-17T19:48:37.767Z,36.11
2023-03-17T19:51:06.901Z,36.18
2023-03-17T19:53:35.307Z,36.10
2023-03-17T19:56:05.494Z,36.04
2023-03-17T19:58:33.669Z,36.26
2023-03-17T20:01:01.910Z,36.03
2023-03-17T20:03:30.143Z,36.21
2023-03-17T20:05:58.563Z,36.13
2023-03-17T20:08:26.675Z,36.16
2023-03-17T20:10:55.318Z,36.12
2023-03-17T20:13:25.130Z,36.12
2023-03-17T20:15:53.360Z,36.14
2023-03-17T20:18:23.176Z,36.10
2023-03-17T20:20:54.265Z,36.15
2023-03-17T20:23:22.752Z,36.14
2023-03-17T20:25:51.465Z,36.08
2023-03-17T20:28:21.569Z,36.16
2023-03-17T20:30:51.653Z,36.29
2023-03-17T20:33:19.819Z,36.09
2023-03-17T20:35:48.187Z,36.23
2023-03-17T20:38:16.936Z,36.23
2023-03-17T20:40:45.006Z,36.24
2023-03-17T20:43:13.096Z,36.21
2023-03-17T20:45:41.273Z,36.16
2023-03-17T20:48:12.115Z,36.34
2023-03-17T20:50:41.096Z,36.21
2023-03-17T20:53:09.165Z,36.33
2023-03-17T20:55:37.706Z,36.36
2023-03-17T20:58:05.811Z,36.39
2023-03-17T21:00:34.271Z,36.18
2023-03-17T21:03:02.803Z,36.25
2023-03-17T21:05:32.821Z,36.16
2023-03-17T21:08:01.290Z,36.39
2023-03-17T21:10:29.596Z,36.37
2023-03-17T21:12:57.820Z,36.24
2023-03-17T21:15:26.090Z,36.38
2023-03-17T21:17:54.519Z,36.35
2023-03-17T21:20:23.216Z,36.41
2023-03-17T21:22:52.916Z,36.30
2023-03-17T21:25:21.039Z,36.08
2023-03-17T21:27:49.111Z,36.21
2023-03-17T21:30:17.617Z,36.30
2023-03-17T21:32:45.661Z,36.27
2023-03-17T21:35:14.722Z,36.43
2023-03-17T21:37:42.823Z,36.32
2023-03-17T21:40:14.195Z,36.36
2023-03-17T21:42:42.326Z,36.25
2023-03-17T21:45:11.356Z,36.30
2023-03-17T21:47:40.924Z,36.41
2023-03-17T21:50:10.340Z,36.21
2023-03-17T21:52:39.264Z,36.38
2023-03-17T21:55:09.512Z,36.43
2023-03-17T21:57:39.060Z,36.38
2023-03-17T22:00:09.840Z,36.41
2023-03-17T22:02:38.213Z,36.29
2023-03-17T22:05:07.128Z,36.54
2023-03-17T22:07:35.302Z,36.29
2023-03-17T22:10:06.361Z,36.36
2023-03-17T22:12:34.661Z,36.47
2023-03-17T22:15:04.527Z,36.34
2023-03-17T22:17:32.996Z,36.54
2023-03-17T22:20:01.042Z,36.33
2023-03-17T22:22:30.031Z,36.49
2023-03-17T22:24:58.373Z,36.44
2023-03-17T22:27:27.514Z,36.46
2023-03-17T22:29:55.718Z,36.53
2023-03-17T22:32:25.216Z,36.42
2023-03-17T22:34:53.295Z,36.56
2023-03-17T22:37:21.426Z,36.57
2023-03-17T22:39:50.251Z,36.59
2023-03-17T22:42:18.298Z,36.60
2023-03-17T22:44:46.453Z,36.43
2023-03-17T22:47:14.491Z,36.44
2023-03-17T22:49:44.088Z,36.51
2023-03-17T22:52:12.161Z,36.53
2023-03-17T22:54:40.308Z,36.60
2023-03-17T22:57:08.479Z,36.47
2023-03-17T22:59:36.604Z,36.48
2023-03-17T23:02:04.703Z,36.53
2023-03-17T23:04:34.260Z,36.63
2023-03-17T23:07:04.069Z,36.62
2023-03-17T23:09:33.028Z,36.44
2023-03-17T23:12:01.565Z,36.59
2023-03-17T23:14:29.897Z,36.49
2023-03-17T23:16:58.102Z,36.48
2023-03-17T23:19:26.703Z,36.54
2023-03-17T23:21:54.873Z,36.55
2023-03-17T23:24:24.741Z,36.60
2023-03-17T23:26:53.033Z,36.69
2023-03-17T23:29:21.700Z,36.58
2023-03-17T23:31:49.854Z,36.70
2023-03-17T23:34:18.657Z,36.60
2023-03-17T23:36:47.002Z,36.54
2023-03-17T23:39:15.481Z,36.33
2023-03-17T23:41:45.126Z,36.48
2023-03-17T23:44:14.405Z,36.59
2023-03-17T23:46:43.595Z,36.64
2023-03-17T23:49:12.491Z,36.68
2023-03-17T23:51:41.050Z,36.70
2023-03-17T23:54:10.222Z,36.77
2023-03-17T23:56:38.342Z,36.68
2023-03-17T23:59:09.869Z,36.64
